Time;durP1;ratioP1;P1;durP2;ratioP2;P2;SDS_P1;SDS_P2;PMS_P1;PMS_P2;Temp;Humidity;BMP_temperature;BMP_pressure;BME280_temperature;BME280_humidity;BME280_pressure;Samples;Min_cycle;Max_cycle;Signal;HPM_P1;HPM_P2
2022/01/12 00:00:25;;;;;;;27.85;18.08;;;;;;;3.68;83.32;103476.63;7391798;19;20025;-64
2022/01/12 00:02:54;;;;;;;30.80;18.08;;;;;;;3.64;83.43;103475.69;7392381;19;20074;-65
2022/01/12 00:05:23;;;;;;;35.60;20.13;;;;;;;3.65;83.26;103500.75;7390084;19;20353;-64
2022/01/12 00:07:52;;;;;;;30.10;19.00;;;;;;;3.62;83.44;103498.09;7390924;19;20011;-65
2022/01/12 00:10:22;;;;;;;31.05;18.80;;;;;;;3.62;83.69;103492.91;7390927;19;20084;-64
2022/01/12 00:12:53;;;;;;;32.58;20.00;;;;;;;3.64;83.78;103483.47;7391444;19;20133;-64
2022/01/12 00:15:22;;;;;;;31.55;18.85;;;;;;;3.64;84.24;103486.94;7391028;19;20019;-66
2022/01/12 00:17:51;;;;;;;33.75;21.73;;;;;;;3.55;85.33;103485.78;7388167;19;20108;-65
2022/01/12 00:20:20;;;;;;;32.33;20.77;;;;;;;3.46;86.46;103491.59;7391230;19;20025;-67
2022/01/12 00:22:49;;;;;;;32.80;20.67;;;;;;;3.37;86.89;103497.41;7391117;19;20011;-64
2022/01/12 00:25:30;;;;;;;36.92;22.95;;;;;;;3.24;88.21;103493.56;7389518;19;20038;-65
2022/01/12 00:33:24;;;;;;;42.33;25.40;;;;;;;2.98;91.71;103512.63;7391179;19;20015;-67
2022/01/12 00:35:55;;;;;;;41.92;25.75;;;;;;;2.92;92.62;103511.63;7388151;19;20022;-67
2022/01/12 00:38:29;;;;;;;46.30;27.52;;;;;;;2.92;93.20;103519.38;7389213;19;20023;-68
2022/01/12 00:40:58;;;;;;;47.05;28.50;;;;;;;2.93;93.67;103517.66;7390138;19;20021;-66
2022/01/12 00:43:33;;;;;;;51.13;30.50;;;;;;;2.93;94.02;103518.53;7391044;19;20123;-68
2022/01/12 00:46:02;;;;;;;59.80;33.58;;;;;;;2.90;93.92;103525.34;7388930;19;20019;-67
2022/01/12 00:48:31;;;;;;;49.05;28.58;;;;;;;2.88;94.00;103525.28;7390205;19;20030;-68
2022/01/12 00:51:01;;;;;;;53.22;32.42;;;;;;;2.86;94.35;103526.06;7389894;19;20017;-67
2022/01/12 00:53:29;;;;;;;54.38;32.63;;;;;;;2.87;94.73;103518.34;7389867;19;20017;-67
2022/01/12 00:55:59;;;;;;;50.92;31.80;;;;;;;2.86;94.90;103508.81;7386905;19;20684;-64
2022/01/12 00:58:30;;;;;;;53.97;33.65;;;;;;;2.86;95.16;103507.94;7387856;19;20026;-66
2022/01/12 01:00:59;;;;;;;51.97;31.55;;;;;;;2.85;95.46;103503.59;7389627;19;20010;-67
2022/01/12 01:03:28;;;;;;;54.30;32.78;;;;;;;2.89;95.69;103495.09;7389239;19;20013;-67
2022/01/12 01:05:59;;;;;;;52.85;33.83;;;;;;;2.91;95.60;103498.63;7386837;19;20094;-67
2022/01/12 01:08:28;;;;;;;58.30;33.78;;;;;;;3.01;95.98;103503.25;7388948;19;20011;-68
2022/01/12 01:10:58;;;;;;;61.47;36.75;;;;;;;3.06;95.72;103490.44;7388857;19;20065;-65
2022/01/12 01:13:34;;;;;;;57.25;35.42;;;;;;;3.05;95.61;103494.75;7389464;19;20017;-68
2022/01/12 01:16:11;;;;;;;62.42;37.67;;;;;;;3.09;95.64;103501.75;7387466;19;20025;-67
2022/01/12 01:26:46;;;;;;;62.67;38.03;;;;;;;3.03;96.33;103527.47;7387636;19;20022;-66
2022/01/12 01:29:18;;;;;;;64.32;39.10;;;;;;;2.98;96.20;103526.47;7390187;19;20803;-66
2022/01/12 01:31:47;;;;;;;62.45;38.00;;;;;;;3.01;96.73;103539.50;7389173;19;20015;-68
2022/01/12 01:34:17;;;;;;;68.88;40.10;;;;;;;3.03;96.72;103537.84;7388294;19;20011;-67
2022/01/12 01:36:52;;;;;;;67.90;40.08;;;;;;;3.04;96.98;103526.66;7386324;19;20524;-66
2022/01/12 01:39:24;;;;;;;73.82;42.13;;;;;;;3.04;96.75;103521.47;7388542;19;20011;-68
2022/01/12 01:41:57;;;;;;;64.00;39.20;;;;;;;3.13;97.06;103530.34;7388711;19;20349;-67
2022/01/12 01:55:12;;;;;;;71.60;43.17;;;;;;;3.04;96.75;103503.34;7389257;19;20329;-67
2022/01/12 01:57:42;;;;;;;74.57;43.15;;;;;;;3.07;96.69;103513.78;7388954;19;20014;-68
2022/01/12 02:00:16;;;;;;;73.60;43.63;;;;;;;3.16;97.00;103495.03;7390349;19;20039;-68
2022/01/12 02:02:46;;;;;;;85.65;48.25;;;;;;;3.21;96.65;103509.03;7389972;19;20015;-68
2022/01/12 02:05:15;;;;;;;78.30;45.75;;;;;;;3.21;96.61;103513.31;7389161;19;20018;-68
2022/01/12 02:07:45;;;;;;;78.80;45.75;;;;;;;3.25;96.56;103517.75;7387961;19;20010;-69
2022/01/12 02:10:14;;;;;;;79.85;45.95;;;;;;;3.29;96.63;103517.00;7388493;19;20011;-68
2022/01/12 02:12:43;;;;;;;80.80;47.13;;;;;;;3.32;96.57;103513.66;7388576;19;20014;-68
2022/01/12 02:15:22;;;;;;;86.80;47.05;;;;;;;3.35;96.40;103517.19;7389030;19;20010;-68
2022/01/12 02:37:02;;;;;;;85.03;46.50;;;;;;;3.32;96.61;103555.09;7393082;19;20022;-68
2022/01/12 02:39:51;;;;;;;86.53;47.83;;;;;;;3.27;96.20;103552.38;7394441;19;20774;-69
2022/01/12 02:42:20;;;;;;;74.38;43.45;;;;;;;3.31;96.15;103559.41;7393561;19;20018;-68
2022/01/12 02:55:42;;;;;;;71.32;40.92;;;;;;;3.08;96.15;103597.53;7392599;19;20519;-68
2022/01/12 02:58:11;;;;;;;87.18;46.00;;;;;;;3.10;96.35;103603.69;7393384;19;20016;-67
2022/01/12 03:00:59;;;;;;;77.22;44.22;;;;;;;3.10;96.53;103606.25;7394307;19;20054;-67
2022/01/12 03:03:32;;;;;;;86.68;47.97;;;;;;;3.15;96.70;103602.09;7393572;19;20033;-66
2022/01/12 03:06:04;;;;;;;81.85;45.08;;;;;;;3.19;96.72;103608.25;7390580;19;20015;-66
2022/01/12 03:08:37;;;;;;;82.22;45.03;;;;;;;3.16;96.54;103623.72;7394558;19;20022;-67
2022/01/12 03:11:09;;;;;;;;;;;;;;;3.13;96.47;103624.50;7395306;19;20017;-68
2022/01/12 03:13:39;;;;;;;82.93;45.50;;;;;;;3.16;96.57;103621.13;7394414;19;20254;-68
2022/01/12 03:16:13;;;;;;;88.07;47.78;;;;;;;3.20;96.70;103623.84;7391190;19;20279;-68
2022/01/12 03:18:43;;;;;;;86.20;47.15;;;;;;;3.23;96.81;103620.50;7392443;19;20071;-67
2022/01/12 03:21:13;;;;;;;98.07;48.83;;;;;;;3.26;96.98;103621.44;7393931;19;20057;-67
2022/01/12 03:23:42;;;;;;;96.78;51.60;;;;;;;3.27;96.67;103617.16;7393045;19;20021;-66
2022/01/12 03:26:14;;;;;;;87.90;48.78;;;;;;;3.27;96.53;103615.44;7388645;19;20100;-67
2022/01/12 03:28:52;;;;;;;89.03;48.38;;;;;;;3.21;96.55;103617.84;7393837;19;20501;-67
2022/01/12 03:31:23;;;;;;;107.40;52.35;;;;;;;3.16;96.35;103621.13;7393073;19;20021;-66
2022/01/12 03:34:05;;;;;;;100.75;49.67;;;;;;;3.06;96.51;103614.75;7393592;19;20007;-65
2022/01/12 03:36:55;;;;;;;95.07;49.28;;;;;;;3.03;96.81;103617.25;7391582;19;20010;-65
2022/01/12 03:39:25;;;;;;;103.55;52.08;;;;;;;3.04;97.21;103619.03;7390771;19;20017;-66
2022/01/12 03:41:57;;;;;;;103.70;53.25;;;;;;;3.10;97.51;103614.03;7391878;19;20341;-66
2022/01/12 03:44:26;;;;;;;93.43;49.88;;;;;;;3.10;97.53;103614.03;7391897;19;20082;-65
2022/01/12 03:46:55;;;;;;;95.38;50.83;;;;;;;3.07;97.86;103613.94;7391084;19;20015;-67
2022/01/12 03:49:25;;;;;;;95.78;50.17;;;;;;;3.01;97.70;103616.31;7392544;19;20064;-65
2022/01/12 03:51:54;;;;;;;102.03;52.85;;;;;;;2.98;98.08;103618.81;7392765;19;20349;-65
2022/01/12 03:54:23;;;;;;;94.90;50.55;;;;;;;2.97;98.14;103611.91;7392388;19;20011;-65
2022/01/12 03:56:52;;;;;;;100.68;50.70;;;;;;;2.98;98.45;103609.34;7391620;19;20035;-65
2022/01/12 03:59:23;;;;;;;105.63;54.40;;;;;;;3.03;98.47;103610.34;7390505;19;20074;-66
2022/01/12 04:01:52;;;;;;;102.85;52.72;;;;;;;3.06;98.56;103607.88;7391761;19;20022;-66
2022/01/12 04:04:29;;;;;;;114.18;56.50;;;;;;;3.05;98.35;103608.72;7392083;19;20041;-66
2022/01/12 04:09:39;;;;;;;97.18;52.45;;;;;;;3.06;98.53;103618.22;7388387;19;20059;-66
2022/01/12 04:12:09;;;;;;;103.47;53.90;;;;;;;3.02;98.56;103615.50;7391316;19;20034;-65
2022/01/12 04:14:40;;;;;;;92.35;51.10;;;;;;;3.08;98.36;103614.00;7390721;19;20027;-66
2022/01/12 04:17:09;;;;;;;104.55;53.83;;;;;;;3.08;98.30;103615.69;7390011;19;20086;-66
2022/01/12 04:19:38;;;;;;;98.68;53.97;;;;;;;3.08;98.47;103614.00;7389712;19;20022;-66
2022/01/12 04:23:16;;;;;;;105.32;54.30;;;;;;;3.08;98.52;103614.00;7391210;19;20036;-65
2022/01/12 04:24:58;;;;;;;96.13;51.92;;;;;;;3.08;98.60;103608.81;7389256;19;20022;-65
2022/01/12 04:27:27;;;;;;;127.47;60.13;;;;;;;3.05;98.32;103611.31;7390729;19;20034;-65
2022/01/12 04:29:58;;;;;;;105.32;55.00;;;;;;;3.05;98.39;103613.00;7392068;19;20028;-65
2022/01/12 04:32:28;;;;;;;92.10;49.55;;;;;;;3.06;98.61;103609.59;7391202;19;20015;-65
2022/01/12 04:34:57;;;;;;;97.35;52.13;;;;;;;3.05;98.59;103613.91;7390670;19;20081;-66
2022/01/12 04:37:25;;;;;;;111.85;55.60;;;;;;;3.09;98.94;103618.31;7389901;19;20463;-65
2022/01/12 04:39:54;;;;;;;101.40;54.10;;;;;;;3.14;98.96;103618.50;7390954;19;20831;-65
2022/01/12 04:42:23;;;;;;;109.05;54.65;;;;;;;3.12;98.66;103625.31;7390526;19;20010;-66
2022/01/12 04:45:00;;;;;;;103.07;54.50;;;;;;;3.09;98.51;103620.03;7390007;19;20411;-66
2022/01/12 04:47:47;;;;;;;107.55;55.83;;;;;;;3.05;98.38;103611.31;7390251;19;20019;-66
2022/01/12 04:50:16;;;;;;;109.88;57.17;;;;;;;3.12;98.87;103607.19;7390795;19;20014;-66
2022/01/12 04:52:45;;;;;;;107.10;55.20;;;;;;;3.15;98.65;103598.63;7388286;19;20021;-66
2022/01/12 04:55:13;;;;;;;110.75;55.55;;;;;;;3.18;98.84;103604.81;7389816;19;20016;-66
2022/01/12 04:57:42;;;;;;;102.15;55.15;;;;;;;3.22;98.90;103601.44;7389446;19;20030;-67
2022/01/12 05:00:16;;;;;;;110.55;57.90;;;;;;;3.20;98.68;103617.81;7390530;19;20046;-66
2022/01/12 05:08:18;;;;;;;118.43;58.97;;;;;;;3.16;98.85;103615.94;7391893;19;20011;-66
2022/01/12 05:13:30;;;;;;;115.40;59.90;;;;;;;3.11;98.62;103631.34;7391182;19;20645;-66
2022/01/12 05:16:00;;;;;;;101.72;55.03;;;;;;;3.09;98.75;103627.81;7389787;19;20022;-66
2022/01/12 05:18:32;;;;;;;103.20;54.40;;;;;;;3.06;98.51;103632.91;7390782;19;20374;-66
2022/01/12 05:21:02;;;;;;;102.75;54.42;;;;;;;3.09;98.76;103631.28;7394200;19;20013;-66
2022/01/12 05:23:31;;;;;;;104.30;55.97;;;;;;;3.11;98.54;103624.44;7391030;19;20430;-66
2022/01/12 05:26:00;;;;;;;101.90;54.88;;;;;;;3.18;98.90;103628.13;7388579;19;20021;-66
2022/01/12 05:28:30;;;;;;;100.50;55.03;;;;;;;3.21;98.90;103636.00;7390169;19;20010;-66
2022/01/12 05:30:59;;;;;;;117.18;58.10;;;;;;;3.21;98.94;103637.69;7390862;19;20014;-66
2022/01/12 05:33:31;;;;;;;110.25;56.50;;;;;;;3.16;98.64;103639.25;7389497;19;20020;-66
2022/01/12 05:36:03;;;;;;;103.38;55.97;;;;;;;3.17;98.81;103631.53;7387315;19;20389;-66
2022/01/12 05:38:32;;;;;;;116.32;59.83;;;;;;;3.16;98.86;103623.72;7388785;19;20014;-66
2022/01/12 05:41:04;;;;;;;111.78;56.47;;;;;;;3.20;99.09;103625.59;7389632;19;20492;-66
2022/01/12 05:43:35;;;;;;;116.38;56.92;;;;;;;3.27;99.04;103619.75;7389516;19;20021;-66
2022/01/12 05:46:11;;;;;;;117.63;59.67;;;;;;;3.30;99.20;103614.66;7387948;19;20082;-66
2022/01/12 05:51:26;;;;;;;108.72;55.65;;;;;;;3.30;98.76;103619.84;7390022;19;20022;-65
2022/01/12 05:53:55;;;;;;;103.32;55.65;;;;;;;3.27;98.61;103627.53;7390067;19;20023;-66
2022/01/12 05:56:24;;;;;;;120.35;56.88;;;;;;;3.20;98.38;103636.81;7386312;19;20024;-65
2022/01/12 05:58:53;;;;;;;108.97;55.42;;;;;;;3.18;98.25;103638.50;7388917;19;20021;-66
2022/01/12 06:01:23;;;;;;;118.35;57.47;;;;;;;3.17;98.52;103633.25;7389351;19;20019;-66
2022/01/12 06:03:54;;;;;;;116.60;56.45;;;;;;;3.25;98.62;103649.91;7390785;19;20014;-66
2022/01/12 06:06:23;;;;;;;109.72;57.08;;;;;;;3.31;98.89;103652.72;7392905;19;20014;-65
2022/01/12 06:08:52;;;;;;;120.55;59.03;;;;;;;3.34;98.80;103663.19;7396107;19;20012;-65
2022/01/12 06:11:23;;;;;;;123.95;61.50;;;;;;;3.39;98.91;103669.38;7397174;19;20018;-66
2022/01/12 06:13:54;;;;;;;123.78;58.65;;;;;;;3.44;99.08;103673.00;7396274;19;20018;-66
2022/01/12 06:16:23;;;;;;;134.23;63.80;;;;;;;3.41;98.85;103680.69;7393117;19;20486;-65
2022/01/12 06:18:56;;;;;;;126.50;59.67;;;;;;;3.40;98.96;103681.50;7395311;19;20089;-66
2022/01/12 06:21:25;;;;;;;128.15;61.42;;;;;;;3.43;98.84;103685.91;7396914;19;20013;-65
2022/01/12 06:23:54;;;;;;;124.55;58.85;;;;;;;3.43;98.92;103694.56;7394348;19;20023;-66
2022/01/12 06:26:25;;;;;;;114.22;56.47;;;;;;;3.45;98.66;103686.81;7392824;19;20115;-67
2022/01/12 06:29:23;;;;;;;126.10;57.58;;;;;;;3.45;98.55;103699.78;7397089;19;20513;-66
2022/01/12 06:31:54;;;;;;;134.27;57.70;;;;;;;3.51;98.67;103697.41;7396206;19;20546;-66
2022/01/12 06:34:25;;;;;;;119.53;54.25;;;;;;;3.55;98.88;103690.59;7396155;19;20028;-67
2022/01/12 06:36:54;;;;;;;133.43;57.60;;;;;;;3.58;98.60;103696.78;7394875;19;20018;-67
2022/01/12 06:39:23;;;;;;;124.65;56.05;;;;;;;3.64;98.73;103696.09;7394381;19;20015;-66
2022/01/12 06:41:54;;;;;;;130.25;55.67;;;;;;;3.65;98.58;103705.59;7395551;19;20021;-66
2022/01/12 06:44:25;;;;;;;135.25;57.33;;;;;;;3.70;98.76;103701.47;7395297;19;20018;-66
2022/01/12 06:46:56;;;;;;;124.63;56.20;;;;;;;3.78;98.64;103701.69;7395519;19;20010;-67
2022/01/12 06:49:28;;;;;;;133.95;56.90;;;;;;;3.80;98.56;103705.22;7397054;19;20018;-66
2022/01/12 06:51:59;;;;;;;128.65;54.97;;;;;;;3.85;98.42;103713.13;7397407;19;20011;-67
2022/01/12 06:54:29;;;;;;;132.27;54.10;;;;;;;3.86;98.05;103715.78;7396788;19;20055;-67
2022/01/12 06:56:58;;;;;;;118.30;52.25;;;;;;;3.92;98.17;103733.25;7396289;19;20015;-66
2022/01/12 06:59:26;;;;;;;130.02;54.42;;;;;;;3.93;97.84;103725.50;7395351;19;20337;-67
2022/01/12 07:01:55;;;;;;;125.25;52.65;;;;;;;3.95;98.04;103725.53;7394034;19;20025;-66
2022/01/12 07:04:24;;;;;;;122.65;53.85;;;;;;;3.97;97.95;103724.75;7394755;19;20010;-67
2022/01/12 07:06:56;;;;;;;133.38;56.08;;;;;;;4.01;97.88;103732.63;7395375;19;20018;-67
2022/01/12 07:09:25;;;;;;;132.98;55.85;;;;;;;4.02;98.00;103740.47;7397860;19;20525;-69
2022/01/12 07:11:54;;;;;;;145.20;55.40;;;;;;;4.03;97.94;103733.59;7400496;19;20474;-68
2022/01/12 07:14:23;;;;;;;121.15;49.58;;;;;;;4.02;97.91;103743.06;7400508;19;20011;-67
2022/01/12 07:16:52;;;;;;;116.28;48.78;;;;;;;4.05;97.86;103753.53;7396391;19;20017;-67
2022/01/12 07:19:20;;;;;;;111.30;45.50;;;;;;;4.08;97.86;103747.56;7396600;19;20015;-68
2022/01/12 07:21:50;;;;;;;111.95;45.80;;;;;;;4.08;97.94;103755.34;7400099;19;20025;-69
2022/01/12 07:24:21;;;;;;;116.07;47.80;;;;;;;4.09;97.86;103767.50;7397348;19;20014;-69
2022/01/12 07:26:50;;;;;;;106.73;44.50;;;;;;;4.08;97.85;103776.09;7403206;19;20010;-67
2022/01/12 07:29:19;;;;;;;108.32;44.55;;;;;;;4.08;97.96;103770.91;7398359;19;20018;-66
2022/01/12 07:31:48;;;;;;;99.63;41.63;;;;;;;4.05;97.98;103769.09;7398848;19;20081;-66
2022/01/12 07:34:18;;;;;;;92.03;40.20;;;;;;;4.05;97.79;103770.81;7398811;19;20002;-67
2022/01/12 07:36:47;;;;;;;90.35;39.33;;;;;;;4.02;97.66;103771.59;7400861;19;20073;-68
2022/01/12 07:39:16;;;;;;;99.50;39.80;;;;;;;4.02;97.91;103775.91;7396559;19;20015;-67
2022/01/12 07:41:47;;;;;;;91.60;38.38;;;;;;;4.01;97.70;103780.22;7398749;19;20463;-66
2022/01/12 07:44:16;;;;;;;95.25;39.40;;;;;;;4.03;97.70;103781.16;7400343;19;20053;-67
2022/01/12 07:46:45;;;;;;;89.40;36.30;;;;;;;4.03;97.72;103788.06;7399803;19;20471;-68
2022/01/12 07:49:14;;;;;;;90.18;36.88;;;;;;;3.99;97.79;103797.47;7399487;19;20069;-67
2022/01/12 07:51:43;;;;;;;90.82;36.15;;;;;;;4.01;97.62;103803.56;7398247;19;20014;-67
2022/01/12 07:54:12;;;;;;;92.18;38.30;;;;;;;4.02;97.65;103800.13;7396520;19;20019;-68
2022/01/12 07:56:41;;;;;;;93.95;37.35;;;;;;;4.01;97.83;103813.94;7395705;19;20501;-67
2022/01/12 07:59:12;;;;;;;96.55;38.17;;;;;;;4.01;97.74;103819.13;7395257;19;20011;-66
2022/01/12 08:01:41;;;;;;;98.40;38.75;;;;;;;3.99;97.82;103816.47;7396147;19;20479;-67
2022/01/12 08:04:10;;;;;;;94.38;35.70;;;;;;;3.99;97.70;103813.88;7395013;19;20724;-67
2022/01/12 08:06:39;;;;;;;96.30;36.65;;;;;;;4.00;97.79;103819.97;7396539;19;20523;-67
2022/01/12 08:09:08;;;;;;;93.18;34.38;;;;;;;3.87;97.00;103810.94;7396200;19;20464;-67
2022/01/12 08:11:37;;;;;;;94.05;34.25;;;;;;;3.88;97.20;103814.38;7395137;19;20034;-68
2022/01/12 08:14:05;;;;;;;93.70;33.70;;;;;;;3.89;97.05;103811.84;7394980;19;20011;-67
2022/01/12 08:16:37;;;;;;;90.05;33.88;;;;;;;3.93;97.29;103813.72;7396490;19;20016;-66
2022/01/12 08:19:06;;;;;;;90.97;34.75;;;;;;;3.98;97.24;103817.34;7393905;19;20007;-66
2022/01/12 08:21:34;;;;;;;91.55;34.22;;;;;;;4.03;97.25;103814.00;7395351;19;20015;-66
2022/01/12 08:24:03;;;;;;;94.95;36.00;;;;;;;4.06;97.27;103827.09;7393332;19;20070;-66
2022/01/12 08:26:32;;;;;;;99.15;35.40;;;;;;;4.08;97.10;103830.59;7393721;19;20017;-67
2022/01/12 08:29:01;;;;;;;99.43;36.67;;;;;;;4.04;97.09;103832.22;7391957;19;20020;-66
2022/01/12 08:31:30;;;;;;;101.60;35.47;;;;;;;4.05;97.12;103831.38;7394555;19;20018;-66
2022/01/12 08:34:01;;;;;;;101.82;35.92;;;;;;;4.07;97.19;103829.72;7395434;19;20011;-65
2022/01/12 08:36:30;;;;;;;92.15;34.40;;;;;;;4.08;96.94;103839.25;7394346;19;20006;-66
2022/01/12 08:39:00;;;;;;;91.20;34.22;;;;;;;4.06;96.77;103832.28;7394679;19;20091;-66
2022/01/12 08:41:28;;;;;;;94.13;33.28;;;;;;;4.05;96.46;103830.50;7394762;19;20014;-66
2022/01/12 08:43:57;;;;;;;89.25;32.58;;;;;;;4.06;96.38;103830.53;7395547;19;20011;-67
2022/01/12 08:46:26;;;;;;;86.07;34.35;;;;;;;4.12;96.51;103835.06;7392046;19;20010;-68
2022/01/12 08:48:55;;;;;;;91.38;34.13;;;;;;;4.09;96.05;103833.22;7394586;19;20090;-66
2022/01/12 08:51:26;;;;;;;84.18;32.63;;;;;;;4.09;95.89;103824.56;7394036;19;20022;-66
2022/01/12 08:53:55;;;;;;;79.00;32.00;;;;;;;4.10;95.98;103835.00;7395461;19;20014;-67
2022/01/12 08:56:24;;;;;;;87.70;34.38;;;;;;;4.11;95.85;103835.88;7393069;19;20027;-66
2022/01/12 08:58:53;;;;;;;87.95;33.90;;;;;;;4.13;95.85;103847.19;7395075;19;20014;-67
2022/01/12 09:01:22;;;;;;;83.05;32.45;;;;;;;4.12;95.92;103858.41;7395157;19;20028;-66
2022/01/12 09:03:51;;;;;;;76.45;31.15;;;;;;;4.14;95.90;103868.00;7391801;19;20014;-67
2022/01/12 09:06:20;;;;;;;84.30;33.88;;;;;;;4.18;95.97;103883.66;7391301;19;20018;-66
2022/01/12 09:08:52;;;;;;;85.00;33.25;;;;;;;4.16;96.07;103881.91;7391703;19;20014;-68
2022/01/12 09:11:21;;;;;;;87.63;33.28;;;;;;;4.20;96.37;103887.19;7394954;19;20458;-65
2022/01/12 09:13:49;;;;;;;85.22;34.00;;;;;;;4.21;96.34;103895.00;7394965;19;20476;-65
2022/01/12 09:16:18;;;;;;;86.25;33.95;;;;;;;4.23;96.35;103897.69;7391712;19;20018;-65
2022/01/12 09:18:47;;;;;;;85.75;33.40;;;;;;;4.24;96.44;103896.84;7393253;19;20021;-66
2022/01/12 09:21:16;;;;;;;78.85;32.50;;;;;;;4.25;96.45;103898.59;7391652;19;20006;-66
2022/01/12 09:23:48;;;;;;;80.13;32.35;;;;;;;4.19;95.99;103903.63;7392409;19;20014;-66
2022/01/12 09:26:20;;;;;;;71.68;30.02;;;;;;;4.15;96.15;103900.03;7392408;19;20345;-66
2022/01/12 09:28:49;;;;;;;79.40;33.22;;;;;;;4.06;95.79;103912.72;7395020;19;20011;-65
2022/01/12 09:31:17;;;;;;;88.80;35.35;;;;;;;4.01;95.66;103919.44;7393639;19;20478;-66
2022/01/12 09:33:49;;;;;;;82.15;33.63;;;;;;;4.05;95.79;103921.31;7394785;19;20006;-66
2022/01/12 09:36:18;;;;;;;76.20;32.63;;;;;;;4.01;95.67;103919.44;7391712;19;20374;-66
2022/01/12 09:38:47;;;;;;;73.22;29.60;;;;;;;4.04;95.48;103924.72;7391570;19;20015;-66
2022/01/12 09:41:16;;;;;;;74.85;31.50;;;;;;;4.11;95.51;103925.00;7391393;19;20097;-66
2022/01/12 09:43:51;;;;;;;79.00;30.42;;;;;;;4.13;95.21;103931.13;7394093;19;20007;-67
2022/01/12 09:46:21;;;;;;;72.57;30.75;;;;;;;4.15;95.25;103938.94;7391660;19;20049;-66
2022/01/12 09:48:50;;;;;;;75.53;31.58;;;;;;;4.16;95.29;103941.59;7393893;19;20011;-66
2022/01/12 09:51:18;;;;;;;69.10;29.77;;;;;;;4.19;95.46;103937.34;7393452;19;20030;-67
2022/01/12 09:53:47;;;;;;;79.93;31.10;;;;;;;4.18;95.38;103931.25;7393293;19;20011;-67
2022/01/12 09:56:20;;;;;;;69.30;30.88;;;;;;;4.13;94.92;103935.44;7391325;19;20014;-66
2022/01/12 09:58:54;;;;;;;66.07;29.90;;;;;;;4.14;94.72;103939.78;7392690;19;20011;-68
2022/01/12 10:01:28;;;;;;;73.63;31.35;;;;;;;4.16;94.58;103943.31;7390150;19;20042;-66
2022/01/12 10:04:08;;;;;;;67.32;29.38;;;;;;;4.17;94.59;103939.91;7391214;19;20013;-66
2022/01/12 10:06:38;;;;;;;71.22;28.55;;;;;;;4.19;94.73;103948.59;7392693;19;20018;-66
2022/01/12 10:09:07;;;;;;;78.85;32.03;;;;;;;4.17;94.78;103945.09;7393395;19;20007;-67
2022/01/12 10:11:36;;;;;;;76.13;30.65;;;;;;;4.20;94.95;103944.28;7392046;19;20089;-67
2022/01/12 10:14:07;;;;;;;70.97;29.75;;;;;;;4.18;94.87;103946.84;7392475;19;20018;-67
2022/01/12 10:16:36;;;;;;;73.63;28.15;;;;;;;4.24;94.89;103951.34;7390911;19;20018;-67
2022/01/12 10:19:05;;;;;;;67.03;28.52;;;;;;;4.30;94.78;103948.97;7391717;19;20020;-67
2022/01/12 10:21:37;;;;;;;65.90;28.45;;;;;;;4.33;94.89;103946.47;7389299;19;20017;-67
2022/01/12 10:24:09;;;;;;;69.70;28.75;;;;;;;4.30;94.33;103943.78;7392702;19;20508;-67
2022/01/12 10:26:40;;;;;;;61.75;28.30;;;;;;;4.24;93.70;103940.97;7390904;19;20014;-67
2022/01/12 10:29:14;;;;;;;61.08;27.58;;;;;;;4.20;92.89;103941.69;7391916;19;20041;-66
2022/01/12 10:31:48;;;;;;;70.85;29.70;;;;;;;4.27;92.85;103935.88;7391857;19;20716;-66
2022/01/12 10:34:17;;;;;;;70.20;29.45;;;;;;;4.27;93.11;103928.97;7390645;19;20025;-66
2022/01/12 10:36:48;;;;;;;69.03;28.95;;;;;;;4.31;93.32;103930.84;7390459;19;20553;-66
2022/01/12 10:39:19;;;;;;;62.15;28.25;;;;;;;4.33;93.22;103931.75;7390387;19;20011;-66
2022/01/12 10:41:58;;;;;;;69.97;28.35;;;;;;;4.40;93.60;103931.94;7388975;19;20017;-67
2022/01/12 10:44:32;;;;;;;78.93;30.70;;;;;;;4.38;93.38;103938.81;7391604;19;20359;-66
2022/01/12 10:47:16;;;;;;;65.25;29.35;;;;;;;4.37;93.11;103935.34;7391514;19;20010;-67
2022/01/12 10:50:00;;;;;;;62.83;27.05;;;;;;;4.31;92.75;103930.84;7394150;19;20006;-67
2022/01/12 10:52:30;;;;;;;59.65;27.35;;;;;;;4.27;92.38;103935.88;7397135;19;20018;-67
2022/01/12 10:55:01;;;;;;;66.38;28.17;;;;;;;4.31;92.75;103941.22;7399933;19;20018;-67
2022/01/12 10:57:32;;;;;;;62.90;28.63;;;;;;;4.37;93.45;103942.25;7400224;19;20498;-66
2022/01/12 11:00:08;;;;;;;62.40;27.13;;;;;;;4.40;93.61;103944.94;7400831;19;20357;-67
2022/01/12 11:02:39;;;;;;;70.88;30.02;;;;;;;4.43;93.52;103950.25;7399603;19;20035;-67
2022/01/12 11:05:10;;;;;;;68.28;28.38;;;;;;;4.36;93.33;103956.06;7397877;19;20523;-65
2022/01/12 11:07:39;;;;;;;69.90;29.58;;;;;;;4.35;93.18;103962.97;7396907;19;20009;-64
2022/01/12 11:10:10;;;;;;;65.72;27.63;;;;;;;4.30;92.85;103956.75;7398727;19;20139;-66
2022/01/12 11:12:40;;;;;;;70.38;28.20;;;;;;;4.24;92.40;103949.66;7398733;19;20014;-67
2022/01/12 11:15:14;;;;;;;59.83;27.27;;;;;;;4.14;92.11;103952.75;7397343;19;20543;-66
2022/01/12 11:17:45;;;;;;;58.55;25.65;;;;;;;4.15;92.10;103952.81;7397594;19;20026;-66
2022/01/12 11:20:19;;;;;;;61.97;26.00;;;;;;;4.20;92.04;103940.00;7395552;19;20021;-66
2022/01/12 11:23:07;;;;;;;63.20;26.60;;;;;;;4.31;92.35;103936.03;7397953;19;20449;-66
2022/01/12 11:25:37;;;;;;;64.45;26.73;;;;;;;4.38;92.48;103934.50;7393978;19;20015;-64
2022/01/12 11:28:12;;;;;;;66.05;27.27;;;;;;;4.35;92.27;103936.13;7397590;19;20023;-66
2022/01/12 11:31:00;;;;;;;61.88;24.80;;;;;;;4.35;92.24;103920.56;7396252;19;20065;-66
2022/01/12 11:33:40;;;;;;;64.75;27.65;;;;;;;4.32;92.29;103923.94;7395339;19;20328;-66
2022/01/12 11:36:18;;;;;;;63.20;26.77;;;;;;;4.31;92.12;103925.66;7396800;19;20089;-66
2022/01/12 11:38:48;;;;;;;56.53;25.73;;;;;;;4.27;92.07;103933.25;7398943;19;20019;-67
2022/01/12 11:41:24;;;;;;;60.20;26.27;;;;;;;4.34;92.21;103919.66;7396525;19;20015;-65
2022/01/12 11:43:54;;;;;;;60.95;25.90;;;;;;;4.36;91.86;103927.53;7398710;19;20049;-66
2022/01/12 11:46:27;;;;;;;57.55;24.23;;;;;;;4.44;92.10;103926.03;7394225;19;20021;-66
2022/01/12 11:48:58;;;;;;;55.20;24.83;;;;;;;4.48;91.98;103918.41;7398740;19;20009;-66
2022/01/12 11:51:36;;;;;;;55.53;25.70;;;;;;;4.48;91.78;103921.00;7400358;19;20013;-66
2022/01/12 11:54:10;;;;;;;61.72;26.88;;;;;;;4.50;91.91;103919.31;7398232;19;20007;-71
2022/01/12 11:56:41;;;;;;;65.95;26.52;;;;;;;4.43;91.46;103927.75;7396794;19;20074;-65
2022/01/12 11:59:11;;;;;;;57.53;24.80;;;;;;;4.45;91.42;103933.84;7395458;19;20447;-66
2022/01/12 12:01:48;;;;;;;57.67;25.45;;;;;;;4.47;91.40;103927.03;7394004;19;20014;-66
2022/01/12 12:04:26;;;;;;;67.68;28.98;;;;;;;4.52;91.80;103931.47;7396764;19;20022;-66
2022/01/12 12:07:10;;;;;;;62.65;27.15;;;;;;;4.50;91.63;103929.72;7396348;19;20034;-65
2022/01/12 12:09:44;;;;;;;61.53;26.55;;;;;;;4.41;90.83;103925.94;7396851;19;20024;-66
2022/01/12 12:12:15;;;;;;;59.33;26.20;;;;;;;4.42;91.64;103922.50;7395167;19;20013;-69
2022/01/12 12:14:47;;;;;;;68.18;27.88;;;;;;;4.49;91.98;103935.72;7396587;19;20024;-67
2022/01/12 12:17:19;;;;;;;55.07;24.93;;;;;;;4.45;91.30;103918.28;7397334;19;20017;-66
2022/01/12 12:19:49;;;;;;;58.60;27.27;;;;;;;4.44;91.50;103931.22;7398713;19;20075;-65
2022/01/12 12:22:19;;;;;;;62.10;25.85;;;;;;;4.45;91.26;103925.19;7397288;19;20082;-64
2022/01/12 12:24:50;;;;;;;52.42;23.42;;;;;;;4.47;91.47;103910.53;7397850;19;20397;-66
2022/01/12 12:27:22;;;;;;;62.40;28.73;;;;;;;4.48;91.69;103913.22;7397272;19;20491;-66
2022/01/12 12:29:52;;;;;;;58.15;26.55;;;;;;;4.45;90.74;103902.69;7396458;19;20011;-65
2022/01/12 12:32:35;;;;;;;72.60;35.55;;;;;;;4.51;90.63;103915.00;7394036;19;20011;-66
2022/01/12 12:35:08;;;;;;;101.07;54.30;;;;;;;4.54;90.38;103907.28;7395595;19;20060;-66
2022/01/12 12:37:39;;;;;;;92.72;48.60;;;;;;;4.58;90.26;103903.97;7395732;19;20014;-66
2022/01/12 12:40:18;;;;;;;72.95;34.40;;;;;;;4.58;90.29;103898.78;7395556;19;20007;-65